This is the latest recevied weather packets stored in our database for station/object DC1MAK-13. If no packets are shown the sender has not sent any weather packets the latest 10 day(s).
| Time | Temp. | Humidity | Pressure | Rain* | Wind** | Luminosity | Snow |
|---|---|---|---|---|---|---|---|
| 1777835759 | 17.22° C | 44% | 983.9 hPa | - | - | - | - |
| 1777835453 | 17.22° C | 45% | 983.7 hPa | - | - | - | - |
| 1777835149 | 17.78° C | 45% | 983.7 hPa | - | - | - | - |
| 1777834846 | 17.78° C | 46% | 983.7 hPa | - | - | - | - |
| 1777833024 | 18.33° C | 53% | 983.2 hPa | - | - | - | - |
| 1777829079 | 22.22° C | 42% | 982.9 hPa | - | - | - | - |
| 1777828166 | 21.67° C | 42% | 983 hPa | - | - | - | - |
| 1777825439 | 22.78° C | 37% | 982.8 hPa | - | - | - | - |
| 1777823919 | 26.11° C | 31% | 982.6 hPa | - | - | - | - |
| 1777822399 | 30° C | 25% | 982.6 hPa | - | - | - | - |
| 1777822099 | 29.44° C | 26% | 982.6 hPa | - | - | - | - |
| 1777821487 | 30° C | 26% | 982.7 hPa | - | - | - | - |
| 1777819059 | 25° C | 33% | 982.9 hPa | - | - | - | - |
| 1777818147 | 27.22° C | 27% | 982.9 hPa | - | - | - | - |
| 1777817844 | 28.33° C | 25% | 982.9 hPa | - | - | - | - |
| 1777816933 | 27.22° C | 26% | 983.1 hPa | - | - | - | - |
| 1777816326 | 25.56° C | 27% | 983.2 hPa | - | - | - | - |
| 1777815419 | 26.11° C | 27% | 983.4 hPa | - | - | - | - |
| 1777815111 | 25° C | 27% | 983.5 hPa | - | - | - | - |
| 1777814808 | 24.44° C | 27% | 983.6 hPa | - | - | - | - |
| 1777814504 | 25.56° C | 27% | 983.6 hPa | - | - | - | - |
| 1777813599 | 25.56° C | 27% | 983.9 hPa | - | - | - | - |
| 1777813290 | 25° C | 28% | 983.9 hPa | - | - | - | - |
| 1777812986 | 24.44° C | 29% | 983.9 hPa | - | - | - | - |
| 1777811772 | 25° C | 28% | 984.1 hPa | - | - | - | - |
* Rain since midnight (hover to see other rain measurements)
** Current wind speed in m/s (hover to see current wind gust speed)